Accueil
METAR-TAF:

METAR-TAF

Aéroports :

Laupheim, Allemagne

latitude: 48-13N, longitude: 009-55E, altitude: 538 m

Observation

Le bulletin a été fait il y a 10 minutes, à 15:20 UTC
Vent 4 kt de est
Température -3°C
Humidité 86%
Pression 1018 hPa
Visibilité: 3000 m
Ciel couvert à une hauteur de 400 ft
brume

METAR: ETHL 211520Z 08004KT 3000 BR OVC004 M03/M05 Q1018 YLO YLO

Heure: 16:30 (15:30 UTC)

Prévision

Le bulletin a été fait il y a 1 heure et 13 minutes, à 14:17 UTC
Prévision valable du 21 à 15 UTC au 21 à 24 UTC
Vent 3 kt de direction variable
Visibilité: 2500 m
Nuages fragmentés à une hauteur de 400 ft
brume
Temporairement
du 21 à 15 UTC au 21 à 17 UTC
Vent 5 kt de est/nord-est
Visibilité: 4000 m
Nuages fragmentés à une hauteur de 600 ft
brume

TAF: ETHL 211417Z 2115/2124 VRB03KT 2500 BR BKN004 TEMPO 2115/2117 06005KT 4000 BR BKN006

Observations et prévisions météorologiques de plus de 4000 aéroports (messages METAR et TAF).

Les stations disponibles sont représentées par des disques jaunes et rouges sur la carte.

Passer la souris dessus pour voir le nom de la station.

Cliquer dessus pour voir les observations et prévisions météorologiques.

Pour changer de carte: cliquez sur les boutons verts avec une croix noire pour zoomer, sur le bouton vert avec un tiret pour effectuer un zoom arrière, ou sur les flèches vertes pour les cartes adjacentes.


METAR-TAF: